Time;durP1;ratioP1;P1;durP2;ratioP2;P2;SDS_P1;SDS_P2;PMS_P1;PMS_P2;Temp;Humidity;BMP_temperature;BMP_pressure;BME280_temperature;BME280_humidity;BME280_pressure;Samples;Min_cycle;Max_cycle;Signal;HPM_P1;HPM_P2
2022/07/20 00:02:00;;;;;;;5.20;1.37;;;;;;;17.31;69.30;101206.11;1861815;75;20959;-88
2022/07/20 00:04:27;;;;;;;2.05;1.10;;;;;;;17.32;69.33;101204.30;1860173;77;21332;-88
2022/07/20 00:06:54;;;;;;;2.00;1.60;;;;;;;17.34;69.49;101205.02;1859134;77;20865;-89
2022/07/20 00:12:08;;;;;;;3.22;1.55;;;;;;;17.33;69.71;101204.19;1858939;77;20932;-89
2022/07/20 00:14:37;;;;;;;3.50;1.32;;;;;;;17.33;69.36;101203.35;1858697;77;21300;-89
2022/07/20 00:17:04;;;;;;;3.72;1.50;;;;;;;17.33;69.32;101205.52;1858957;77;21387;-88
2022/07/20 00:19:32;;;;;;;3.83;1.50;;;;;;;17.35;69.29;101213.36;1859251;77;21394;-88
2022/07/20 00:22:00;;;;;;;2.85;1.37;;;;;;;17.34;69.33;101204.56;1861927;77;21124;-89
2022/07/20 00:24:27;;;;;;;4.15;1.20;;;;;;;17.35;69.07;101209.38;1861966;77;20873;-89
2022/07/20 00:26:53;;;;;;;3.02;1.90;;;;;;;17.34;68.73;101201.92;1862094;77;20905;-89
2022/07/20 00:29:21;;;;;;;2.17;1.57;;;;;;;17.35;68.45;101200.94;1862014;77;20992;-89
2022/07/20 00:31:49;;;;;;;4.55;1.25;;;;;;;17.37;68.18;101199.50;1862028;77;21011;-89
2022/07/20 00:34:17;;;;;;;4.53;1.35;;;;;;;17.38;67.92;101191.89;1862061;77;21770;-89
2022/07/20 00:36:44;;;;;;;4.80;2.37;;;;;;;17.40;67.73;101191.29;1862103;77;20925;-88
2022/07/20 00:39:11;;;;;;;3.92;1.00;;;;;;;17.43;67.61;101190.20;1862118;77;21451;-90
2022/07/20 00:41:38;;;;;;;2.58;1.37;;;;;;;17.46;67.36;101190.80;1861988;77;21007;-89
2022/07/20 00:44:08;;;;;;;1.40;1.30;;;;;;;17.48;67.10;101191.53;1862218;77;21371;-90
2022/07/20 00:46:39;;;;;;;3.65;2.50;;;;;;;17.51;66.96;101193.92;1862031;77;22059;-89
2022/07/20 00:49:07;;;;;;;1.40;1.30;;;;;;;17.52;67.23;101192.97;1861871;77;21335;-90
2022/07/20 00:51:34;;;;;;;2.33;1.32;;;;;;;17.53;67.84;101181.88;1862409;77;20842;-88
2022/07/20 00:54:03;;;;;;;1.57;1.30;;;;;;;17.53;68.27;101180.55;1862184;77;20893;-89
2022/07/20 00:56:30;;;;;;;2.45;1.45;;;;;;;17.54;68.51;101180.89;1831389;77;20917;-89
2022/07/20 00:58:57;;;;;;;2.35;1.47;;;;;;;17.52;68.55;101173.55;1863502;77;21915;-89
2022/07/20 01:01:24;;;;;;;2.30;1.60;;;;;;;17.52;68.68;101180.17;1863695;77;20854;-88
2022/07/20 01:03:51;;;;;;;2.25;1.27;;;;;;;17.50;68.70;101178.16;1864726;75;20949;-89
2022/07/20 01:06:19;;;;;;;6.12;1.37;;;;;;;17.48;68.58;101176.95;1864931;77;21133;-89
2022/07/20 01:08:48;;;;;;;3.55;1.25;;;;;;;17.46;68.54;101169.59;1863558;77;21311;-89
2022/07/20 01:11:16;;;;;;;2.98;1.70;;;;;;;17.44;68.51;101165.38;1862276;77;21150;-88
2022/07/20 01:13:43;;;;;;;1.80;1.45;;;;;;;17.41;68.56;101165.15;1862398;77;20897;-88
2022/07/20 01:16:10;;;;;;;3.75;1.40;;;;;;;17.39;68.65;101167.91;1862787;77;21366;-88
2022/07/20 01:18:37;;;;;;;2.95;1.20;;;;;;;17.38;68.94;101165.37;1836646;77;20948;-89
2022/07/20 01:21:07;;;;;;;3.50;1.80;;;;;;;17.35;69.32;101159.84;1860804;77;20908;-87
2022/07/20 01:23:34;;;;;;;5.45;1.50;;;;;;;17.34;69.58;101163.47;1858999;77;21316;-88
2022/07/20 01:26:01;;;;;;;2.08;1.45;;;;;;;17.32;69.86;101162.75;1858775;77;20881;-90
2022/07/20 01:28:29;;;;;;;3.58;1.70;;;;;;;17.31;70.15;101161.53;1858744;77;20929;-89
2022/07/20 01:30:56;;;;;;;2.77;1.90;;;;;;;17.29;70.46;101161.65;1858773;77;21359;-88
2022/07/20 01:33:22;;;;;;;2.60;1.52;;;;;;;17.26;70.59;101162.39;1858821;77;21316;-89
2022/07/20 01:35:49;;;;;;;6.53;1.40;;;;;;;17.22;70.76;101163.59;1858940;77;21222;-90
2022/07/20 01:38:16;;;;;;;2.47;1.52;;;;;;;17.16;70.88;101167.11;1858743;76;20873;-89
2022/07/20 01:40:43;;;;;;;1.72;1.62;;;;;;;17.11;71.07;101167.09;1858819;77;21363;-89
2022/07/20 01:43:10;;;;;;;4.80;1.92;;;;;;;17.04;71.40;101166.73;1858915;76;20909;-88
2022/07/20 01:45:37;;;;;;;2.47;1.40;;;;;;;16.99;71.63;101167.09;1859044;77;20893;-89
2022/07/20 01:48:04;;;;;;;3.15;2.02;;;;;;;16.95;71.85;101170.94;1858834;76;21125;-90
2022/07/20 01:50:32;;;;;;;2.45;1.55;;;;;;;16.90;72.11;101167.82;1858893;76;20925;-88
2022/07/20 01:52:59;;;;;;;6.40;1.90;;;;;;;16.85;72.08;101168.67;1858532;76;21027;-88
2022/07/20 01:55:26;;;;;;;2.58;1.75;;;;;;;16.80;72.05;101166.84;1858714;77;20908;-89
2022/07/20 01:57:53;;;;;;;4.67;1.75;;;;;;;16.77;72.11;101174.52;1858878;77;20901;-89
2022/07/20 02:00:20;;;;;;;3.00;1.42;;;;;;;16.74;72.02;101167.27;1858743;77;21226;-88
2022/07/20 02:02:47;;;;;;;2.85;1.77;;;;;;;16.72;71.96;101170.55;1858861;77;20865;-89
2022/07/20 02:05:14;;;;;;;4.42;1.60;;;;;;;16.68;71.98;101165.95;1858729;77;20905;-89
2022/07/20 02:07:41;;;;;;;2.77;1.87;;;;;;;16.66;71.96;101173.17;1858928;77;21477;-88
2022/07/20 02:10:09;;;;;;;3.77;2.20;;;;;;;16.63;71.93;101176.53;1858980;77;20915;-86
2022/07/20 02:12:36;;;;;;;2.25;1.50;;;;;;;16.61;71.90;101183.74;1859133;77;21226;-88
2022/07/20 02:15:08;;;;;;;1.72;1.52;;;;;;;16.57;72.02;101181.34;1858716;76;20865;-89
2022/07/20 02:17:35;;;;;;;1.98;1.60;;;;;;;16.54;72.22;101179.39;1858836;77;20912;-89
2022/07/20 02:20:04;;;;;;;3.02;1.62;;;;;;;16.49;72.51;101185.04;1858586;77;21340;-89
2022/07/20 02:22:31;;;;;;;5.70;2.55;;;;;;;16.46;72.50;101185.28;1858581;76;21458;-88
2022/07/20 02:24:58;;;;;;;6.62;1.87;;;;;;;16.41;72.68;101186.13;1858757;77;21282;-89
2022/07/20 02:27:25;;;;;;;5.12;2.25;;;;;;;16.40;72.89;101183.58;1858947;77;20819;-89
2022/07/20 02:29:53;;;;;;;3.08;2.20;;;;;;;16.37;72.94;101181.53;1858932;76;20862;-89
2022/07/20 02:32:20;;;;;;;5.22;1.62;;;;;;;16.35;72.92;101178.64;1858728;77;20877;-88
2022/07/20 02:34:47;;;;;;;2.92;1.90;;;;;;;16.31;72.61;101185.95;1858784;77;20826;-88
2022/07/20 02:37:14;;;;;;;3.45;1.70;;;;;;;16.27;72.25;101184.98;1858906;77;21214;-88
2022/07/20 02:39:41;;;;;;;4.83;1.72;;;;;;;16.27;72.43;101194.24;1858753;77;20913;-88
2022/07/20 02:42:08;;;;;;;5.97;2.30;;;;;;;16.26;72.66;101191.25;1859009;77;20865;-86
2022/07/20 02:44:35;;;;;;;6.00;2.37;;;;;;;16.26;72.81;101189.92;1858982;77;21529;-88
2022/07/20 02:47:02;;;;;;;2.58;2.22;;;;;;;16.28;73.00;101192.81;1859209;76;20909;-88
2022/07/20 02:49:29;;;;;;;4.90;1.75;;;;;;;16.40;73.17;101184.91;1859631;77;21402;-87
2022/07/20 02:51:56;;;;;;;7.95;2.30;;;;;;;16.40;73.17;101184.91;1859150;77;20952;-88
2022/07/20 02:54:23;;;;;;;6.83;2.00;;;;;;;16.46;72.83;101187.94;1858830;77;21438;-87
2022/07/20 02:56:50;;;;;;;8.10;2.08;;;;;;;16.52;72.68;101186.16;1858877;77;20952;-88
2022/07/20 02:59:17;;;;;;;6.85;2.50;;;;;;;16.59;72.10;101185.20;1859197;77;20988;-88
2022/07/20 03:01:45;;;;;;;4.92;1.90;;;;;;;16.65;71.89;101190.04;1859060;77;20814;-89
2022/07/20 03:04:12;;;;;;;5.55;2.20;;;;;;;16.72;71.76;101185.95;1858973;77;20917;-86
2022/07/20 03:06:39;;;;;;;4.92;2.58;;;;;;;16.82;71.81;101182.63;1859721;77;20917;-86
2022/07/20 03:09:06;;;;;;;11.57;2.72;;;;;;;16.89;71.79;101185.98;1859821;77;20908;-88
2022/07/20 03:11:35;;;;;;;3.80;1.92;;;;;;;16.94;71.68;101182.52;1860084;77;20865;-89
2022/07/20 03:14:02;;;;;;;9.28;2.27;;;;;;;17.00;71.67;101181.18;1861622;77;21219;-86
2022/07/20 03:16:30;;;;;;;10.58;2.30;;;;;;;17.09;71.55;101186.25;1861849;75;20909;-88
2022/07/20 03:18:58;;;;;;;5.67;2.58;;;;;;;17.16;71.61;101190.95;1859648;77;20893;-89
2022/07/20 03:21:25;;;;;;;10.35;2.58;;;;;;;17.27;71.75;101194.55;1859722;77;21394;-88
2022/07/20 03:23:53;;;;;;;6.33;2.40;;;;;;;17.34;71.89;101193.96;1862278;77;22120;-89
2022/07/20 03:26:21;;;;;;;7.15;3.10;;;;;;;17.42;71.72;101188.52;1862036;77;21257;-88
2022/07/20 03:28:48;;;;;;;4.40;2.10;;;;;;;17.47;71.38;101188.50;1861969;77;20865;-89
2022/07/20 03:31:15;;;;;;;3.08;2.17;;;;;;;17.52;71.21;101192.11;1862288;77;20909;-88
2022/07/20 03:33:42;;;;;;;4.97;2.30;;;;;;;17.54;71.14;101191.05;1862190;77;20921;-89
2022/07/20 03:36:09;;;;;;;9.55;1.92;;;;;;;17.57;71.03;101190.78;1862352;77;20976;-89
2022/07/20 03:38:36;;;;;;;4.45;2.22;;;;;;;17.59;71.05;101182.72;1862479;77;21797;-89
2022/07/20 03:41:03;;;;;;;2.98;2.25;;;;;;;17.61;71.08;101192.23;1862269;77;20897;-87
2022/07/20 03:43:30;;;;;;;11.55;2.72;;;;;;;17.64;71.13;101196.44;1862389;77;20925;-87
2022/07/20 03:45:57;;;;;;;6.70;2.90;;;;;;;17.66;71.17;101193.18;1862369;77;20896;-88
2022/07/20 03:48:26;;;;;;;5.70;2.35;;;;;;;17.69;71.24;101197.39;1862352;77;20830;-88
2022/07/20 03:50:53;;;;;;;4.60;2.80;;;;;;;17.73;71.22;101188.22;1836314;77;21276;-88
2022/07/20 03:53:20;;;;;;;14.73;3.77;;;;;;;17.77;71.21;101193.16;1862210;77;20932;-88
2022/07/20 03:55:47;;;;;;;10.65;3.67;;;;;;;17.83;71.23;101192.31;1862284;77;20869;-88
2022/07/20 03:58:14;;;;;;;9.78;3.27;;;;;;;17.87;71.07;101195.92;1862181;77;20925;-88
2022/07/20 04:00:41;;;;;;;13.00;3.95;;;;;;;17.92;70.90;101196.87;1862383;77;20889;-89
2022/07/20 04:03:08;;;;;;;9.13;3.90;;;;;;;17.97;70.80;101190.72;1862619;77;21853;-89
2022/07/20 04:05:35;;;;;;;13.62;3.92;;;;;;;18.02;70.74;101189.36;1862424;77;20853;-89
2022/07/20 04:08:03;;;;;;;13.60;3.22;;;;;;;18.11;70.71;101194.89;1862201;77;21422;-87
2022/07/20 04:10:30;;;;;;;7.95;3.17;;;;;;;18.18;70.71;101192.07;1862255;77;20995;-88
2022/07/20 04:12:57;;;;;;;10.23;4.22;;;;;;;18.27;70.81;101194.45;1862192;77;20951;-88
2022/07/20 04:15:24;;;;;;;5.03;3.95;;;;;;;18.36;70.82;101188.37;1862241;77;21763;-88
2022/07/20 04:17:53;;;;;;;9.08;3.83;;;;;;;18.47;70.91;101193.62;1862002;77;20987;-88
2022/07/20 04:20:20;;;;;;;10.18;3.30;;;;;;;18.59;71.13;101194.41;1862223;77;21071;-89
2022/07/20 04:22:47;;;;;;;7.60;3.00;;;;;;;18.73;71.08;101191.41;1859964;77;20881;-88
2022/07/20 04:25:14;;;;;;;6.53;2.75;;;;;;;18.90;70.90;101186.02;1859231;77;20830;-88
2022/07/20 04:27:41;;;;;;;8.65;2.83;;;;;;;19.20;70.87;101184.32;1859660;77;21836;-85
2022/07/20 04:30:09;;;;;;;7.60;3.17;;;;;;;19.67;70.20;101184.59;1829074;77;20881;-86
2022/07/20 04:32:37;;;;;;;4.28;2.58;;;;;;;20.26;69.01;101185.01;1859190;76;20912;-89
2022/07/20 04:35:06;;;;;;;7.95;2.70;;;;;;;20.95;66.71;101180.41;1859950;77;20913;-89
2022/07/20 04:37:33;;;;;;;4.45;2.30;;;;;;;21.66;64.47;101181.63;1860729;77;20909;-86
2022/07/20 04:40:01;;;;;;;5.47;2.17;;;;;;;22.37;62.38;101177.27;1861687;75;21167;-86
2022/07/20 04:42:28;;;;;;;4.62;2.33;;;;;;;23.03;60.16;101184.73;1826131;77;20830;-88
2022/07/20 04:44:55;;;;;;;4.83;2.17;;;;;;;23.69;58.03;101177.78;1859994;77;20908;-89
2022/07/20 04:47:22;;;;;;;5.30;2.35;;;;;;;24.30;56.08;101178.38;1859031;76;20890;-88
2022/07/20 04:49:49;;;;;;;4.03;2.75;;;;;;;24.87;53.77;101178.80;1859116;77;20985;-89
2022/07/20 04:52:16;;;;;;;4.50;2.17;;;;;;;25.39;52.35;101176.95;1858929;76;21760;-88
2022/07/20 04:54:43;;;;;;;7.72;2.10;;;;;;;25.86;50.89;101175.16;1859361;76;20873;-88
2022/07/20 04:57:11;;;;;;;4.78;2.60;;;;;;;26.29;49.18;101178.72;1858907;76;20925;-88
2022/07/20 04:59:39;;;;;;;6.37;2.45;;;;;;;26.64;48.25;101174.03;1858968;77;21011;-87
2022/07/20 05:02:06;;;;;;;12.18;2.65;;;;;;;27.02;47.53;101172.59;1858900;77;20834;-90
2022/07/20 05:04:34;;;;;;;2.72;1.80;;;;;;;27.39;46.64;101169.47;1858835;77;21227;-89
2022/07/20 05:07:01;;;;;;;2.42;1.80;;;;;;;27.76;45.79;101167.56;1859012;77;20917;-89
2022/07/20 05:09:29;;;;;;;3.83;2.30;;;;;;;28.11;44.94;101165.86;1859010;77;20948;-90
2022/07/20 05:11:56;;;;;;;3.67;1.92;;;;;;;28.43;43.87;101162.25;1858861;77;20912;-88
2022/07/20 05:14:24;;;;;;;4.53;1.80;;;;;;;28.72;43.15;101161.26;1858790;77;20921;-88
2022/07/20 05:16:51;;;;;;;1.87;1.60;;;;;;;28.99;42.77;101158.67;1858648;76;21235;-89
2022/07/20 05:19:18;;;;;;;3.80;3.33;;;;;;;29.26;42.16;101162.37;1858722;76;20889;-89
2022/07/20 05:21:45;;;;;;;2.83;1.30;;;;;;;29.54;41.51;101154.12;1859636;77;20869;-89
2022/07/20 05:24:13;;;;;;;1.98;1.60;;;;;;;29.75;41.13;101150.47;1862297;77;20916;-89
2022/07/20 05:26:40;;;;;;;1.92;1.82;;;;;;;30.03;40.39;101144.02;1862641;77;21462;-90
2022/07/20 05:29:07;;;;;;;3.60;1.62;;;;;;;30.32;39.82;101144.14;1862599;77;21124;-90
2022/07/20 05:31:35;;;;;;;2.85;1.67;;;;;;;30.54;39.23;101142.02;1862455;77;20909;-88
2022/07/20 05:34:02;;;;;;;5.28;1.70;;;;;;;30.72;38.78;101140.00;1862340;77;20936;-89
2022/07/20 05:36:29;;;;;;;3.62;1.35;;;;;;;30.96;38.27;101150.69;1862481;77;20999;-88
2022/07/20 05:38:58;;;;;;;4.45;1.62;;;;;;;31.19;37.83;101147.98;1862808;77;21361;-90
2022/07/20 05:41:24;;;;;;;3.67;1.70;;;;;;;31.42;37.18;101140.72;1862401;77;21248;-91
2022/07/20 05:43:51;;;;;;;4.15;1.90;;;;;;;31.65;36.85;101140.67;1862407;77;21070;-89
2022/07/20 05:46:19;;;;;;;3.00;1.55;;;;;;;31.77;36.49;101133.48;1862513;77;21245;-88
2022/07/20 05:48:46;;;;;;;2.37;2.05;;;;;;;31.95;36.09;101130.84;1862668;77;20862;-90
2022/07/20 05:51:13;;;;;;;3.10;1.98;;;;;;;32.11;35.81;101128.13;1864684;75;20944;-87
2022/07/20 05:53:40;;;;;;;2.70;1.90;;;;;;;32.29;35.34;101126.52;1865186;77;21238;-88
2022/07/20 05:56:07;;;;;;;3.75;1.52;;;;;;;32.51;35.25;101128.27;1864400;77;20896;-88
2022/07/20 05:58:34;;;;;;;1.05;1.05;;;;;;;32.68;34.78;101123.91;1862342;77;20833;-89
2022/07/20 06:01:01;;;;;;;2.42;1.30;;;;;;;32.85;34.58;101126.03;1862073;77;20921;-86
2022/07/20 06:03:28;;;;;;;4.08;1.42;;;;;;;32.91;34.54;101117.80;1862033;77;20861;-89
2022/07/20 06:05:55;;;;;;;1.37;1.17;;;;;;;33.01;34.27;101114.53;1862301;77;21137;-88
2022/07/20 06:08:22;;;;;;;3.20;1.17;;;;;;;33.17;33.90;101104.94;1862252;77;20889;-88
2022/07/20 06:10:49;;;;;;;2.42;1.55;;;;;;;33.13;34.11;101106.45;1862137;77;20867;-89
2022/07/20 06:13:18;;;;;;;1.50;1.40;;;;;;;33.16;34.18;101110.09;1862109;77;21407;-89
2022/07/20 06:15:47;;;;;;;2.35;1.45;;;;;;;33.32;33.93;101101.27;1862260;77;20822;-90
2022/07/20 06:18:14;;;;;;;2.27;1.40;;;;;;;33.50;33.83;101100.91;1862544;77;21389;-90
2022/07/20 06:20:44;;;;;;;2.58;1.22;;;;;;;33.71;33.45;101098.22;1862973;77;20933;-90
2022/07/20 06:23:11;;;;;;;3.25;1.37;;;;;;;33.91;32.66;101102.80;1863626;77;20964;-91
2022/07/20 06:25:40;;;;;;;3.58;1.35;;;;;;;34.09;32.43;101100.48;1862273;77;20983;-91
2022/07/20 06:28:08;;;;;;;1.25;1.10;;;;;;;34.22;31.95;101094.02;1862342;77;20877;-88
2022/07/20 06:30:35;;;;;;;3.42;1.62;;;;;;;34.35;31.79;101091.04;1862391;77;21818;-89
2022/07/20 06:33:02;;;;;;;2.58;1.32;;;;;;;34.46;31.68;101085.25;1862990;77;20913;-88
2022/07/20 06:37:19;;;;;;;1.55;1.27;;;;;;;34.86;31.31;101080.38;1885304;75;22531;-90
2022/07/20 06:39:46;;;;;;;3.47;1.20;;;;;;;34.99;30.78;101077.36;1862029;77;21381;-90
2022/07/20 06:42:13;;;;;;;1.65;1.27;;;;;;;35.12;30.35;101072.19;1862256;77;21100;-90
2022/07/20 06:44:42;;;;;;;2.62;1.00;;;;;;;35.24;29.96;101074.84;1861959;77;21112;-89
2022/07/20 06:47:10;;;;;;;2.00;1.37;;;;;;;35.35;29.53;101074.48;1862108;77;20918;-90
2022/07/20 06:49:38;;;;;;;5.05;1.77;;;;;;;35.43;29.03;101056.36;1862173;76;20887;-90
2022/07/20 06:52:07;;;;;;;5.15;1.42;;;;;;;35.47;28.79;101062.98;1862016;76;20899;-91
2022/07/20 06:54:34;;;;;;;1.95;1.77;;;;;;;35.49;28.80;101060.30;1861913;77;21266;-91
2022/07/20 06:57:01;;;;;;;3.95;2.98;;;;;;;35.58;28.71;101062.08;1861892;77;20970;-90
2022/07/20 06:59:28;;;;;;;4.72;2.60;;;;;;;35.65;28.41;101060.03;1861880;77;21333;-90
2022/07/20 07:01:56;;;;;;;3.45;2.45;;;;;;;35.65;28.35;101056.48;1862394;77;20879;-90
2022/07/20 07:04:23;;;;;;;5.20;2.52;;;;;;;35.66;28.25;101050.78;1864460;77;20957;-89
2022/07/20 07:06:50;;;;;;;3.45;2.65;;;;;;;35.75;28.07;101049.80;1862990;77;21984;-90
2022/07/20 07:09:17;;;;;;;1.98;1.50;;;;;;;35.90;28.48;101059.59;1861818;77;20915;-90
2022/07/20 07:11:45;;;;;;;4.78;2.37;;;;;;;35.95;27.40;101053.38;1861544;77;20958;-92
2022/07/20 07:14:13;;;;;;;2.85;2.17;;;;;;;35.90;27.48;101058.77;1861534;77;21443;-89
2022/07/20 07:16:42;;;;;;;3.87;1.77;;;;;;;35.82;27.34;101054.58;1861362;77;20961;-91
2022/07/20 07:19:10;;;;;;;4.75;2.92;;;;;;;35.79;27.33;101054.23;1861168;77;20934;-91
2022/07/20 07:21:37;;;;;;;4.53;2.12;;;;;;;35.84;27.33;101051.06;1861362;77;20895;-89
2022/07/20 07:24:05;;;;;;;2.77;2.10;;;;;;;36.00;27.04;101045.82;1861578;77;21458;-89
2022/07/20 07:26:32;;;;;;;5.67;5.15;;;;;;;36.15;27.12;101045.22;1861737;77;21456;-91
2022/07/20 07:28:59;;;;;;;2.58;2.00;;;;;;;36.30;27.00;101033.95;1861508;77;20864;-91
2022/07/20 07:31:26;;;;;;;6.60;1.87;;;;;;;36.42;26.96;101043.92;1861579;77;21193;-89
2022/07/20 07:33:53;;;;;;;2.70;1.32;;;;;;;36.51;26.68;101041.88;1861118;77;20899;-89
2022/07/20 07:36:20;;;;;;;4.05;1.82;;;;;;;36.57;26.57;101040.56;1861063;77;20899;-89
2022/07/20 07:38:47;;;;;;;4.10;1.45;;;;;;;36.62;26.64;101041.48;1861439;76;21421;-87
2022/07/20 07:41:14;;;;;;;2.33;1.25;;;;;;;36.65;26.69;101039.59;1861312;77;21101;-89
2022/07/20 07:43:42;;;;;;;3.15;1.57;;;;;;;36.77;26.44;101036.71;1861388;77;21877;-89
2022/07/20 07:46:09;;;;;;;2.92;1.70;;;;;;;36.89;26.72;101037.95;1860882;76;20864;-88
2022/07/20 07:48:37;;;;;;;1.72;1.62;;;;;;;36.90;26.22;101031.38;1860520;77;20955;-87
2022/07/20 07:51:04;;;;;;;4.97;2.17;;;;;;;36.93;26.03;101031.70;1861089;77;20946;-87
2022/07/20 07:53:31;;;;;;;4.25;2.80;;;;;;;36.97;26.08;101026.52;1861397;77;20860;-89
2022/07/20 07:55:59;;;;;;;2.77;2.52;;;;;;;37.10;26.12;101025.31;1861274;77;21144;-87
2022/07/20 07:58:26;;;;;;;3.85;3.42;;;;;;;37.19;25.81;101027.04;1861215;77;21341;-90
2022/07/20 08:00:53;;;;;;;6.15;3.45;;;;;;;37.23;26.00;101014.50;1861789;76;20868;-89
2022/07/20 08:03:20;;;;;;;4.70;3.22;;;;;;;37.22;26.01;101013.68;1862122;77;20946;-89
2022/07/20 08:05:47;;;;;;;2.35;2.25;;;;;;;37.32;25.59;101007.45;1863016;77;21021;-89
2022/07/20 08:08:14;;;;;;;1.60;1.50;;;;;;;37.28;25.59;101013.16;1863724;77;21152;-88
2022/07/20 08:10:43;;;;;;;1.52;1.20;;;;;;;37.24;25.49;101006.56;1862957;76;20835;-89
2022/07/20 08:13:12;;;;;;;2.27;1.90;;;;;;;37.18;24.97;100998.87;1863360;77;21052;-90
2022/07/20 08:15:39;;;;;;;2.52;1.62;;;;;;;37.06;25.33;100994.89;1863063;76;20852;-88
2022/07/20 08:18:06;;;;;;;3.25;2.30;;;;;;;36.99;25.42;100975.14;1861967;76;20911;-89
2022/07/20 08:20:33;;;;;;;4.00;1.42;;;;;;;37.01;25.31;100987.20;1861337;76;21231;-89
2022/07/20 08:23:00;;;;;;;3.62;1.05;;;;;;;37.20;25.09;100983.02;1861806;76;20868;-90
2022/07/20 08:25:28;;;;;;;0.70;0.55;;;;;;;37.39;24.44;100977.95;1861568;77;20844;-90
2022/07/20 08:27:57;;;;;;;1.70;0.98;;;;;;;37.59;24.30;100975.93;1861804;77;20966;-89
2022/07/20 08:30:24;;;;;;;2.55;0.70;;;;;;;37.69;23.58;100976.00;1858811;76;20910;-88
2022/07/20 08:32:51;;;;;;;3.30;1.07;;;;;;;37.80;22.91;100976.04;1862538;77;21436;-89
2022/07/20 08:35:22;;;;;;;1.27;0.53;;;;;;;37.78;23.05;100972.22;1862071;77;20895;-92
2022/07/20 08:37:52;;;;;;;0.62;0.42;;;;;;;37.80;23.09;100963.72;1788073;77;21022;-90
2022/07/20 08:40:22;;;;;;;1.42;0.70;;;;;;;37.84;22.67;100964.32;1778937;80;20881;-90
2022/07/20 08:42:49;;;;;;;3.12;0.72;;;;;;;37.79;22.91;100960.72;1778964;79;20900;-90
2022/07/20 08:45:18;;;;;;;1.70;0.70;;;;;;;37.83;23.41;100959.10;1779062;80;21126;-88
2022/07/20 08:47:45;;;;;;;2.10;1.05;;;;;;;37.89;23.28;100952.02;1779453;80;20877;-90
2022/07/20 08:50:12;;;;;;;6.87;0.78;;;;;;;37.83;23.37;100954.44;1779411;79;20951;-90
2022/07/20 08:52:39;;;;;;;5.25;0.80;;;;;;;37.77;23.45;100950.58;1779240;80;21011;-89
2022/07/20 08:55:10;;;;;;;1.22;0.60;;;;;;;37.68;23.19;100945.59;1753809;80;20876;-89
2022/07/20 08:57:38;;;;;;;0.50;0.50;;;;;;;37.63;23.40;100940.66;1779612;80;21234;-89
2022/07/20 09:00:07;;;;;;;2.37;0.70;;;;;;;37.51;23.20;100927.16;1779732;79;20848;-89
2022/07/20 09:03:02;;;;;;;2.12;0.82;;;;;;;37.46;23.56;100929.28;1780113;80;20923;-90
2022/07/20 09:05:36;;;;;;;1.95;0.53;;;;;;;37.61;23.84;100920.38;1779680;80;20876;-90
2022/07/20 09:08:04;;;;;;;0.60;0.60;;;;;;;37.78;23.64;100916.65;1779826;80;20920;-92
2022/07/20 09:10:37;;;;;;;4.10;1.10;;;;;;;37.81;23.72;100909.26;1779979;80;21207;-92
2022/07/20 09:13:08;;;;;;;1.77;0.65;;;;;;;37.78;23.85;100902.41;1780209;80;21398;-93
2022/07/20 09:15:53;;;;;;;1.32;0.72;;;;;;;37.78;23.85;100898.30;1779684;80;20895;-90
2022/07/20 09:18:32;;;;;;;1.27;0.60;;;;;;;37.81;23.68;100896.38;1780941;80;21136;-92
2022/07/20 09:21:04;;;;;;;0.88;0.50;;;;;;;37.86;23.51;100901.05;1779995;80;20908;-90
2022/07/20 09:23:44;;;;;;;2.17;0.88;;;;;;;37.84;23.07;100891.77;1779925;80;22934;-90
2022/07/20 09:26:17;;;;;;;0.47;0.47;;;;;;;37.78;22.86;100880.50;1780139;80;20837;-91
2022/07/20 09:28:52;;;;;;;2.47;1.05;;;;;;;37.72;23.25;100879.64;1780300;80;20935;-90
2022/07/20 09:31:26;;;;;;;0.72;0.72;;;;;;;37.84;22.92;100873.97;1779892;80;20920;-91
2022/07/20 09:34:15;;;;;;;0.70;0.60;;;;;;;37.92;22.72;100867.13;1777389;80;20939;-91
2022/07/20 09:36:46;;;;;;;0.68;0.45;;;;;;;37.83;22.58;100872.30;1780558;77;21114;-91
2022/07/20 09:39:25;;;;;;;0.98;0.65;;;;;;;37.63;22.76;100866.75;1773091;79;20920;-90
2022/07/20 09:41:59;;;;;;;3.52;0.95;;;;;;;37.48;23.15;100864.17;1779475;80;21210;-89
2022/07/20 09:44:34;;;;;;;0.80;0.40;;;;;;;37.37;23.45;100867.13;1779189;77;20936;-92
2022/07/20 09:47:06;;;;;;;1.45;0.68;;;;;;;37.36;23.79;100858.11;1778028;80;20873;-91
2022/07/20 09:49:34;;;;;;;0.78;0.70;;;;;;;37.36;23.83;100854.00;1776921;80;21189;-91
2022/07/20 09:52:02;;;;;;;4.00;1.10;;;;;;;37.41;23.71;100849.91;1777692;80;20872;-90
2022/07/20 09:54:31;;;;;;;1.20;1.10;;;;;;;37.44;23.76;100842.56;1777748;80;20927;-92
2022/07/20 09:56:58;;;;;;;1.47;1.27;;;;;;;37.48;23.73;100840.09;1777504;80;20848;-91
2022/07/20 09:59:26;;;;;;;1.82;0.88;;;;;;;37.45;23.85;100837.35;1779326;80;20935;-91
2022/07/20 10:01:54;;;;;;;1.27;1.00;;;;;;;37.49;23.91;100833.55;1777969;80;21115;-90
2022/07/20 10:04:21;;;;;;;2.60;0.70;;;;;;;37.56;23.78;100836.07;1777667;80;20892;-90
2022/07/20 10:06:51;;;;;;;0.95;0.62;;;;;;;37.61;23.98;100826.50;1777710;80;21323;-92
2022/07/20 10:09:18;;;;;;;3.35;1.70;;;;;;;37.52;23.75;100820.14;1777202;80;20923;-92
2022/07/20 10:11:47;;;;;;;1.45;1.05;;;;;;;37.38;23.81;100818.17;1780108;80;20944;-91
2022/07/20 10:14:26;;;;;;;3.72;1.37;;;;;;;37.28;24.12;100813.46;1778543;80;21153;-91
2022/07/20 10:16:55;;;;;;;9.15;1.17;;;;;;;37.37;24.24;100815.96;1789574;79;20908;-93
2022/07/20 10:19:47;;;;;;;1.42;0.85;;;;;;;37.45;23.86;100811.91;1775281;81;20940;-92
2022/07/20 10:22:16;;;;;;;4.47;0.93;;;;;;;37.44;23.48;100802.04;1774944;80;20936;-91
2022/07/20 10:24:44;;;;;;;6.67;1.42;;;;;;;37.46;23.83;100799.86;1774514;79;20980;-93
2022/07/20 10:27:25;;;;;;;1.80;0.80;;;;;;;37.51;23.50;100797.98;1774543;81;21235;-91
2022/07/20 10:29:53;;;;;;;4.53;0.93;;;;;;;37.53;23.47;100790.33;1773649;80;21019;-91
2022/07/20 10:32:28;;;;;;;2.70;1.40;;;;;;;37.47;23.58;100778.27;1773812;81;21354;-92
2022/07/20 10:34:58;;;;;;;13.43;1.20;;;;;;;37.50;23.75;100773.06;1774182;81;20864;-91
2022/07/20 10:37:39;;;;;;;6.55;1.65;;;;;;;37.59;23.75;100782.97;1774346;79;21488;-90
2022/07/20 10:40:19;;;;;;;14.35;2.20;;;;;;;37.57;23.65;100783.78;1774819;79;20865;-94
2022/07/20 10:43:18;;;;;;;2.47;1.65;;;;;;;37.52;23.40;100783.75;1775752;81;20896;-93
2022/07/20 10:45:46;;;;;;;2.62;1.27;;;;;;;37.43;23.68;100774.41;1775985;79;20861;-89
2022/07/20 10:48:17;;;;;;;4.42;2.40;;;;;;;37.39;24.10;100765.91;1775560;79;20904;-92
2022/07/20 10:50:53;;;;;;;2.37;1.52;;;;;;;37.30;23.84;100765.59;1774254;81;20912;-93
2022/07/20 10:53:28;;;;;;;1.60;1.00;;;;;;;37.16;24.25;100762.27;1774050;80;21235;-92
2022/07/20 10:55:58;;;;;;;5.97;1.95;;;;;;;37.20;24.44;100763.35;1773838;79;20872;-93
2022/07/20 10:58:30;;;;;;;3.58;1.92;;;;;;;37.33;24.26;100757.39;1758012;81;20908;-90
2022/07/20 11:01:09;;;;;;;3.00;2.40;;;;;;;37.39;24.12;100752.78;1774772;81;20920;-92
2022/07/20 11:03:45;;;;;;;3.05;1.90;;;;;;;37.33;24.18;100748.66;1752635;81;21620;-91
2022/07/20 11:06:25;;;;;;;1.57;1.47;;;;;;;37.34;24.65;100736.61;1770739;79;21002;-91
2022/07/20 11:09:00;;;;;;;3.08;1.45;;;;;;;37.33;24.38;100740.45;1774922;79;20888;-91
2022/07/20 11:11:31;;;;;;;2.50;1.98;;;;;;;37.26;24.52;100733.57;1776802;80;21382;-90
2022/07/20 11:14:03;;;;;;;3.17;1.77;;;;;;;37.19;24.69;100730.27;1757934;80;20908;-91
2022/07/20 11:16:30;;;;;;;3.45;2.52;;;;;;;37.09;24.66;100726.41;1774374;81;20881;-92
2022/07/20 11:18:59;;;;;;;3.52;2.15;;;;;;;37.04;24.54;100723.62;1774392;81;21142;-91
2022/07/20 11:21:40;;;;;;;4.78;2.50;;;;;;;36.99;24.82;100722.77;1774364;81;20916;-92
2022/07/20 11:24:28;;;;;;;8.23;2.98;;;;;;;36.89;25.12;100716.71;1774926;81;20888;-91
2022/07/20 11:26:56;;;;;;;5.85;2.02;;;;;;;36.74;25.21;100712.52;1774853;79;20944;-91
2022/07/20 11:29:24;;;;;;;8.05;3.27;;;;;;;36.52;25.21;100712.08;1774777;81;20947;-92
2022/07/20 11:31:51;;;;;;;2.87;2.27;;;;;;;36.31;25.59;100698.27;1775800;79;21109;-91
2022/07/20 11:34:18;;;;;;;3.42;2.42;;;;;;;36.04;25.94;100688.75;1775602;79;20936;-92
2022/07/20 11:36:49;;;;;;;4.78;2.35;;;;;;;35.85;25.99;100690.21;1775740;79;20991;-91